Time;durP1;ratioP1;P1;durP2;ratioP2;P2;SDS_P1;SDS_P2;PMS_P1;PMS_P2;Temp;Humidity;BMP_temperature;BMP_pressure;BME280_temperature;BME280_humidity;BME280_pressure;Samples;Min_cycle;Max_cycle;Signal;HPM_P1;HPM_P2
2021/05/17 00:00:53;;;;;;;;;;;8.20;97.10;;;;;;4960991;28;19949;-68
2021/05/17 00:03:19;;;;;;;;;;;8.20;97.30;;;;;;4961911;28;20391;-67
2021/05/17 00:05:45;;;;;;;;;;;8.20;97.30;;;;;;4959758;28;19986;-66
2021/05/17 00:08:10;;;;;;;;;;;8.10;97.30;;;;;;4959961;28;19911;-67
2021/05/17 00:10:36;;;;;;;;;;;8.10;97.30;;;;;;4954227;28;20338;-69
2021/05/17 00:13:02;;;;;;;;;;;8.00;97.30;;;;;;4957732;28;20272;-69
2021/05/17 00:15:28;;;;;;;;;;;8.00;97.30;;;;;;4961263;28;19922;-69
2021/05/17 00:17:55;;;;;;;;;;;8.00;97.40;;;;;;4958925;28;20321;-68
2021/05/17 00:20:21;;;;;;;;;;;7.90;97.40;;;;;;4957695;28;20330;-68
2021/05/17 00:22:47;;;;;;;;;;;7.90;97.50;;;;;;4958954;28;19944;-70
2021/05/17 00:25:13;;;;;;;;;;;7.80;97.50;;;;;;4958238;28;19941;-68
2021/05/17 00:27:39;;;;;;;;;;;7.80;97.50;;;;;;4961211;28;20105;-68
2021/05/17 00:30:06;;;;;;;;;;;7.80;97.50;;;;;;4960292;28;20044;-69
2021/05/17 00:32:31;;;;;;;;;;;7.70;97.60;;;;;;4960266;28;20525;-69
2021/05/17 00:34:57;;;;;;;;;;;7.70;97.60;;;;;;4960374;28;20001;-68
2021/05/17 00:37:23;;;;;;;;;;;7.70;97.60;;;;;;4958844;28;20052;-69
2021/05/17 00:39:48;;;;;;;;;;;7.80;97.70;;;;;;4955408;28;19917;-67
2021/05/17 00:42:14;;;;;;;;;;;7.80;97.70;;;;;;4960342;28;19922;-66
2021/05/17 00:44:41;;;;;;;;;;;7.80;97.70;;;;;;4959678;28;19914;-67
2021/05/17 00:47:14;;;;;;;;;;;7.90;97.80;;;;;;4960682;28;20391;-68
2021/05/17 00:49:40;;;;;;;;;;;7.90;97.70;;;;;;4957415;28;19914;-68
2021/05/17 00:52:06;;;;;;;;;;;8.00;97.70;;;;;;4958595;28;19933;-68
2021/05/17 00:54:32;;;;;;;;;;;8.00;97.60;;;;;;4958731;28;20013;-68
2021/05/17 00:56:57;;;;;;;;;;;8.00;97.60;;;;;;4959565;28;19966;-68
2021/05/17 00:59:23;;;;;;;;;;;8.00;97.60;;;;;;4958329;28;19914;-68
2021/05/17 01:01:49;;;;;;;;;;;8.10;97.50;;;;;;4961977;28;19910;-68
2021/05/17 01:04:14;;;;;;;;;;;8.10;97.40;;;;;;4961744;28;20379;-67
2021/05/17 01:06:41;;;;;;;;;;;8.00;97.40;;;;;;4962050;28;20052;-69
2021/05/17 01:09:07;;;;;;;;;;;8.00;97.30;;;;;;4961053;28;20027;-68
2021/05/17 01:11:33;;;;;;;;;;;7.90;97.40;;;;;;4957971;28;19914;-68
2021/05/17 01:14:01;;;;;;;;;;;7.80;97.40;;;;;;4962819;28;19957;-68
2021/05/17 01:16:27;;;;;;;;;;;7.80;97.30;;;;;;4961241;28;19914;-68
2021/05/17 01:18:52;;;;;;;;;;;7.70;97.30;;;;;;4951775;28;19925;-68
2021/05/17 01:21:19;;;;;;;;;;;7.80;97.50;;;;;;4958339;28;19959;-68
2021/05/17 01:23:50;;;;;;;;;;;7.70;97.40;;;;;;4960831;28;19910;-66
2021/05/17 01:26:15;;;;;;;;;;;7.70;97.30;;;;;;4956891;28;20244;-67
2021/05/17 01:28:41;;;;;;;;;;;7.60;97.40;;;;;;4961759;28;19937;-69
2021/05/17 01:31:08;;;;;;;;;;;7.50;97.30;;;;;;4957937;28;19937;-68
2021/05/17 01:33:35;;;;;;;;;;;7.50;97.40;;;;;;4958827;28;20040;-68
2021/05/17 01:36:01;;;;;;;;;;;7.50;97.50;;;;;;4959158;28;19955;-67
2021/05/17 01:38:27;;;;;;;;;;;7.50;97.50;;;;;;4961474;28;19921;-67
2021/05/17 01:40:54;;;;;;;;;;;7.60;97.60;;;;;;4955113;28;19918;-68
2021/05/17 01:43:21;;;;;;;;;;;7.50;97.60;;;;;;4953113;28;20139;-68
2021/05/17 01:45:47;;;;;;;;;;;7.50;97.60;;;;;;4956967;28;19951;-68
2021/05/17 01:48:12;;;;;;;;;;;7.50;97.70;;;;;;4959992;28;20047;-67
2021/05/17 01:50:38;;;;;;;;;;;7.40;97.70;;;;;;4954852;28;19934;-68
2021/05/17 01:53:04;;;;;;;;;;;7.50;97.70;;;;;;4961178;28;20244;-68
2021/05/17 01:55:29;;;;;;;;;;;7.50;97.80;;;;;;4964889;28;20325;-68
2021/05/17 01:58:04;;;;;;;;;;;7.50;97.80;;;;;;4961161;28;20008;-69
2021/05/17 02:00:30;;;;;;;;;;;7.60;97.80;;;;;;4957795;28;19961;-68
2021/05/17 02:02:56;;;;;;;;;;;7.60;97.80;;;;;;4961278;28;19994;-68
2021/05/17 02:05:21;;;;;;;;;;;7.60;97.80;;;;;;4963288;28;19917;-68
2021/05/17 02:07:47;;;;;;;;;;;7.60;97.70;;;;;;4961886;28;19922;-67
2021/05/17 02:10:13;;;;;;;;;;;7.60;97.70;;;;;;4958880;28;19918;-67
2021/05/17 02:12:38;;;;;;;;;;;7.60;97.70;;;;;;4964883;28;20268;-68
2021/05/17 02:15:04;;;;;;;;;;;7.60;97.60;;;;;;4979717;28;19932;-69
2021/05/17 02:17:30;;;;;;;;;;;7.80;97.70;;;;;;4957346;28;19917;-69
2021/05/17 02:19:57;;;;;;;;;;;7.70;97.50;;;;;;4961955;28;19918;-69
2021/05/17 02:22:23;;;;;;;;;;;7.70;97.50;;;;;;4955108;28;20109;-69
2021/05/17 02:24:48;;;;;;;;;;;7.80;97.50;;;;;;4964236;28;20495;-69
2021/05/17 02:27:15;;;;;;;;;;;7.80;97.50;;;;;;4962846;28;20000;-69
2021/05/17 02:29:40;;;;;;;;;;;7.80;97.40;;;;;;4961967;28;20033;-68
2021/05/17 02:32:06;;;;;;;;;;;7.80;97.40;;;;;;4963065;28;19997;-68
2021/05/17 02:34:32;;;;;;;;;;;7.80;97.40;;;;;;4965672;28;19921;-68
2021/05/17 02:36:58;;;;;;;;;;;7.80;97.50;;;;;;4962154;28;20332;-68
2021/05/17 02:39:23;;;;;;;;;;;7.80;97.40;;;;;;4959832;28;20073;-68
2021/05/17 02:41:50;;;;;;;;;;;7.80;97.40;;;;;;4957451;28;20367;-68
2021/05/17 02:44:15;;;;;;;;;;;7.80;97.30;;;;;;4961826;28;20553;-67
2021/05/17 02:46:41;;;;;;;;;;;7.80;97.20;;;;;;4961701;28;19981;-68
2021/05/17 02:49:06;;;;;;;;;;;7.80;97.30;;;;;;4958036;28;19914;-69
2021/05/17 02:51:32;;;;;;;;;;;7.80;97.30;;;;;;4963856;28;19940;-69
2021/05/17 02:54:06;;;;;;;;;;;7.80;97.30;;;;;;4960166;28;19914;-68
2021/05/17 02:56:33;;;;;;;;;;;7.80;97.30;;;;;;4960131;28;19922;-67
2021/05/17 02:59:01;;;;;;;;;;;7.80;97.30;;;;;;4963810;28;20407;-68
2021/05/17 03:01:39;;;;;;;;;;;7.80;97.30;;;;;;4962757;28;20296;-68
2021/05/17 03:04:16;;;;;;;;;;;7.90;97.30;;;;;;4963929;28;19917;-68
2021/05/17 03:06:47;;;;;;;;;;;7.80;97.20;;;;;;4957978;28;20430;-68
2021/05/17 03:09:14;;;;;;;;;;;7.90;97.50;;;;;;4960376;28;20455;-67
2021/05/17 03:11:40;;;;;;;;;;;7.90;97.50;;;;;;4959237;28;20408;-68
2021/05/17 03:14:07;;;;;;;;;;;7.90;97.40;;;;;;4960929;28;20355;-68
2021/05/17 03:16:33;;;;;;;;;;;7.90;97.40;;;;;;4963890;28;20337;-68
2021/05/17 03:19:00;;;;;;;;;;;7.90;97.40;;;;;;4958837;28;20000;-69
2021/05/17 03:21:27;;;;;;;;;;;8.00;97.40;;;;;;4960957;28;20356;-69
2021/05/17 03:23:53;;;;;;;;;;;8.00;97.40;;;;;;4970830;28;19918;-67
2021/05/17 03:26:19;;;;;;;;;;;8.00;97.40;;;;;;4959027;28;19914;-68
2021/05/17 03:28:45;;;;;;;;;;;8.00;97.50;;;;;;4960500;28;19922;-69
2021/05/17 03:31:11;;;;;;;;;;;8.00;97.40;;;;;;4964982;28;20012;-70
2021/05/17 03:33:37;;;;;;;;;;;8.00;97.40;;;;;;4964860;28;20068;-67
2021/05/17 03:36:02;;;;;;;;;;;8.10;97.40;;;;;;4960225;28;20328;-68
2021/05/17 03:38:28;;;;;;;;;;;8.10;97.30;;;;;;4959438;28;20228;-69
2021/05/17 03:40:53;;;;;;;;;;;8.10;97.30;;;;;;4958566;28;20359;-70
2021/05/17 03:43:19;;;;;;;;;;;8.10;97.30;;;;;;4964064;28;19921;-67
2021/05/17 03:45:44;;;;;;;;;;;8.10;97.20;;;;;;4962257;28;19925;-68
2021/05/17 03:48:10;;;;;;;;;;;8.10;97.20;;;;;;4961343;28;20025;-68
2021/05/17 03:50:35;;;;;;;;;;;8.10;97.20;;;;;;4963900;28;19993;-68
2021/05/17 03:53:01;;;;;;;;;;;8.10;97.20;;;;;;4960667;28;19910;-68
2021/05/17 03:55:26;;;;;;;;;;;8.10;97.10;;;;;;4960455;28;20736;-68
2021/05/17 03:57:55;;;;;;;;;;;8.10;97.20;;;;;;4958131;28;20353;-68
2021/05/17 04:00:21;;;;;;;;;;;8.10;97.20;;;;;;4958413;28;19910;-69
2021/05/17 04:02:46;;;;;;;;;;;8.10;97.20;;;;;;4963093;28;19917;-67
2021/05/17 04:05:28;;;;;;;;;;;8.10;97.20;;;;;;4962503;28;20351;-68
2021/05/17 04:15:41;;;;;;;;;;;8.10;97.10;;;;;;4958635;28;20107;-68
2021/05/17 04:18:07;;;;;;;;;;;8.20;97.10;;;;;;4960828;28;20084;-68
2021/05/17 04:20:32;;;;;;;;;;;8.20;97.10;;;;;;4958749;28;19993;-68
2021/05/17 04:22:58;;;;;;;;;;;8.20;97.10;;;;;;4960002;28;20008;-68
2021/05/17 04:25:24;;;;;;;;;;;8.30;97.00;;;;;;4956106;28;19914;-68
2021/05/17 04:27:49;;;;;;;;;;;8.30;96.90;;;;;;4961029;28;19914;-69
2021/05/17 04:30:15;;;;;;;;;;;8.30;96.80;;;;;;4956996;28;20341;-69
2021/05/17 04:32:40;;;;;;;;;;;8.40;96.80;;;;;;4955009;28;19910;-68
2021/05/17 04:35:06;;;;;;;;;;;8.40;96.80;;;;;;4958503;28;20328;-69
2021/05/17 04:37:32;;;;;;;;;;;8.50;96.70;;;;;;4958838;28;19914;-68
2021/05/17 04:39:57;;;;;;;;;;;8.60;96.70;;;;;;4955827;28;19914;-70
2021/05/17 04:42:23;;;;;;;;;;;8.50;96.60;;;;;;4960203;28;20179;-68
2021/05/17 04:44:48;;;;;;;;;;;8.60;96.40;;;;;;4957198;28;20510;-69
2021/05/17 04:47:14;;;;;;;;;;;8.60;96.30;;;;;;4963126;28;19920;-69
2021/05/17 04:49:39;;;;;;;;;;;8.70;96.30;;;;;;4960108;28;20186;-69
2021/05/17 04:52:05;;;;;;;;;;;8.70;96.20;;;;;;4958488;28;20000;-69
2021/05/17 04:54:30;;;;;;;;;;;8.70;96.20;;;;;;4958075;28;19986;-70
2021/05/17 04:56:56;;;;;;;;;;;8.60;96.20;;;;;;4973417;28;20071;-69
2021/05/17 04:59:21;;;;;;;;;;;8.60;96.20;;;;;;4982358;28;19954;-69
2021/05/17 05:01:47;;;;;;;;;;;8.50;96.30;;;;;;4978393;28;19935;-70
2021/05/17 05:04:12;;;;;;;;;;;8.40;96.40;;;;;;4991448;28;19913;-68
2021/05/17 05:06:38;;;;;;;;;;;8.40;96.50;;;;;;4975343;28;20073;-69
2021/05/17 05:09:04;;;;;;;;;;;8.30;96.60;;;;;;4976397;28;20001;-69
2021/05/17 05:11:29;;;;;;;;;;;8.30;96.70;;;;;;4975625;28;20133;-70
2021/05/17 05:13:54;;;;;;;;;;;8.30;96.80;;;;;;4977018;28;19918;-69
2021/05/17 05:16:20;;;;;;;;;;;8.30;96.80;;;;;;4974681;28;20327;-69
2021/05/17 05:18:45;;;;;;;;;;;8.30;96.90;;;;;;4977333;28;19941;-68
2021/05/17 05:21:11;;;;;;;;;;;8.40;97.00;;;;;;4977701;28;19929;-70
2021/05/17 05:23:36;;;;;;;;;;;8.50;97.10;;;;;;4983262;28;19913;-68
2021/05/17 05:31:31;;;;;;;;;;;8.90;97.10;;;;;;4989791;28;19909;-70
2021/05/17 05:33:56;;;;;;;;;;;9.00;96.90;;;;;;4995734;28;20271;-69
2021/05/17 05:36:21;;;;;;;;;;;9.00;96.50;;;;;;4975113;28;19913;-67
2021/05/17 05:38:47;;;;;;;;;;;9.10;96.40;;;;;;4973679;28;19924;-70
2021/05/17 05:41:13;;;;;;;;;;;9.20;96.10;;;;;;4977130;28;20505;-67
2021/05/17 05:43:38;;;;;;;;;;;9.30;96.10;;;;;;4988136;28;19929;-69
2021/05/17 05:46:04;;;;;;;;;;;9.50;95.60;;;;;;4973450;28;20015;-68
2021/05/17 05:48:29;;;;;;;;;;;9.60;95.90;;;;;;4972655;28;20380;-68
2021/05/17 05:50:55;;;;;;;;;;;9.70;95.50;;;;;;4973453;28;19914;-68
2021/05/17 05:53:20;;;;;;;;;;;9.80;95.50;;;;;;4969749;28;19914;-68
2021/05/17 05:55:46;;;;;;;;;;;9.90;95.50;;;;;;4984258;28;19980;-68
2021/05/17 05:58:13;;;;;;;;;;;9.90;95.40;;;;;;4966718;28;19936;-69
2021/05/17 06:00:39;;;;;;;;;;;10.10;95.10;;;;;;4981620;28;19909;-69
2021/05/17 06:03:05;;;;;;;;;;;10.10;94.20;;;;;;4971676;28;20262;-71
2021/05/17 06:05:31;;;;;;;;;;;10.20;94.40;;;;;;4976642;28;20289;-68
2021/05/17 06:07:58;;;;;;;;;;;10.30;94.10;;;;;;4989653;28;20036;-68
2021/05/17 06:10:24;;;;;;;;;;;10.40;93.10;;;;;;4987006;28;20402;-68
2021/05/17 06:12:49;;;;;;;;;;;10.50;92.80;;;;;;4976528;28;19913;-70
2021/05/17 06:15:16;;;;;;;;;;;10.60;93.10;;;;;;4975351;28;20060;-69
2021/05/17 06:17:42;;;;;;;;;;;10.60;92.80;;;;;;4970691;28;20535;-69
2021/05/17 06:20:08;;;;;;;;;;;10.70;92.90;;;;;;4973423;28;19914;-68
2021/05/17 06:22:36;;;;;;;;;;;10.90;93.00;;;;;;4972256;28;20020;-71
2021/05/17 06:25:04;;;;;;;;;;;11.00;92.40;;;;;;4979922;28;20406;-68
2021/05/17 06:27:29;;;;;;;;;;;11.10;92.40;;;;;;4974540;28;19916;-70
2021/05/17 06:29:56;;;;;;;;;;;11.30;93.20;;;;;;4978232;28;19913;-68
2021/05/17 06:32:22;;;;;;;;;;;11.40;91.20;;;;;;4980646;28;19984;-68
2021/05/17 06:34:49;;;;;;;;;;;11.50;91.20;;;;;;4985854;28;19954;-69
2021/05/17 06:37:15;;;;;;;;;;;11.70;91.80;;;;;;4973034;28;20489;-69
2021/05/17 06:39:40;;;;;;;;;;;11.60;90.30;;;;;;4977123;28;19935;-69
2021/05/17 06:42:06;;;;;;;;;;;11.80;90.30;;;;;;4980152;28;20330;-69
2021/05/17 06:44:32;;;;;;;;;;;11.80;89.70;;;;;;4978446;28;19937;-69
2021/05/17 06:46:57;;;;;;;;;;;12.20;91.50;;;;;;4979582;28;19920;-68
2021/05/17 06:49:26;;;;;;;;;;;12.20;87.80;;;;;;4975112;28;20056;-70
2021/05/17 06:51:52;;;;;;;;;;;12.30;88.30;;;;;;4976550;28;20493;-68
2021/05/17 06:54:20;;;;;;;;;;;12.30;87.00;;;;;;4981558;28;19933;-70
2021/05/17 06:56:54;;;;;;;;;;;12.40;87.30;;;;;;4979101;28;20041;-69
2021/05/17 06:59:22;;;;;;;;;;;12.50;86.60;;;;;;4982576;28;19925;-71
2021/05/17 07:01:48;;;;;;;;;;;12.40;85.90;;;;;;4978685;28;19918;-70
2021/05/17 07:04:16;;;;;;;;;;;12.70;85.10;;;;;;4969134;28;19931;-69
2021/05/17 07:06:59;;;;;;;;;;;12.80;86.10;;;;;;4977350;28;19918;-69
2021/05/17 07:12:14;;;;;;;;;;;13.00;85.10;;;;;;4987195;28;19940;-70
2021/05/17 07:14:39;;;;;;;;;;;12.80;84.00;;;;;;4977158;28;19920;-70
2021/05/17 07:17:06;;;;;;;;;;;13.30;84.80;;;;;;4978081;28;19914;-69
2021/05/17 07:19:31;;;;;;;;;;;13.20;82.90;;;;;;4979595;28;19910;-70
2021/05/17 07:24:41;;;;;;;;;;;13.60;80.50;;;;;;4978729;28;19948;-70
2021/05/17 07:27:06;;;;;;;;;;;13.60;79.10;;;;;;4978089;28;19943;-70
2021/05/17 07:29:36;;;;;;;;;;;13.70;80.10;;;;;;4982032;28;19913;-69
2021/05/17 07:32:02;;;;;;;;;;;13.60;81.20;;;;;;4979979;28;19918;-70
2021/05/17 07:34:29;;;;;;;;;;;13.50;80.10;;;;;;4975756;28;20052;-69
2021/05/17 07:36:55;;;;;;;;;;;13.60;80.20;;;;;;4982608;28;19910;-70
2021/05/17 07:39:20;;;;;;;;;;;13.80;79.30;;;;;;4981090;28;20339;-72
2021/05/17 07:41:46;;;;;;;;;;;13.90;75.10;;;;;;4979416;28;20430;-69
2021/05/17 07:44:11;;;;;;;;;;;13.70;76.00;;;;;;4985211;28;19918;-71
2021/05/17 07:46:37;;;;;;;;;;;13.80;76.80;;;;;;4973083;28;19925;-70
2021/05/17 07:49:14;;;;;;;;;;;14.00;77.80;;;;;;4976162;28;19910;-68
2021/05/17 07:51:42;;;;;;;;;;;13.70;77.60;;;;;;4977354;28;19994;-70
2021/05/17 07:54:07;;;;;;;;;;;14.40;77.00;;;;;;4975194;28;20149;-69
2021/05/17 07:56:33;;;;;;;;;;;14.00;74.00;;;;;;4984155;28;20253;-70
2021/05/17 07:58:58;;;;;;;;;;;14.10;75.10;;;;;;4975645;28;20238;-70
2021/05/17 08:01:24;;;;;;;;;;;13.70;74.40;;;;;;4977683;28;20176;-69
2021/05/17 08:03:50;;;;;;;;;;;13.90;76.00;;;;;;4980361;28;19917;-70
2021/05/17 08:06:16;;;;;;;;;;;14.50;74.40;;;;;;4977945;28;20017;-70
2021/05/17 08:08:41;;;;;;;;;;;14.30;73.10;;;;;;4984301;28;20000;-70
2021/05/17 08:11:07;;;;;;;;;;;14.60;73.40;;;;;;4988935;28;20221;-70
2021/05/17 08:13:32;;;;;;;;;;;14.60;74.40;;;;;;4973230;28;19992;-69
2021/05/17 08:15:58;;;;;;;;;;;14.80;72.20;;;;;;4977303;28;19920;-70
2021/05/17 08:18:23;;;;;;;;;;;14.80;69.10;;;;;;4970558;28;20041;-70
2021/05/17 08:20:49;;;;;;;;;;;14.60;71.50;;;;;;4981850;28;19921;-68
2021/05/17 08:23:16;;;;;;;;;;;14.80;73.70;;;;;;4981990;28;20414;-69
2021/05/17 08:25:46;;;;;;;;;;;14.60;72.70;;;;;;4970071;28;20360;-71
2021/05/17 08:28:13;;;;;;;;;;;14.30;74.30;;;;;;4973362;28;20044;-70
2021/05/17 08:30:42;;;;;;;;;;;14.10;74.30;;;;;;4977739;28;19922;-71
2021/05/17 08:33:08;;;;;;;;;;;14.10;73.00;;;;;;4977931;28;19918;-69
2021/05/17 08:35:33;;;;;;;;;;;14.20;74.20;;;;;;4982645;28;19910;-70
2021/05/17 08:37:59;;;;;;;;;;;14.80;74.60;;;;;;4969833;28;20303;-73
2021/05/17 08:40:26;;;;;;;;;;;15.10;70.20;;;;;;4976974;28;20076;-70
2021/05/17 08:42:52;;;;;;;;;;;15.50;69.30;;;;;;4987974;28;19925;-72
2021/05/17 08:45:18;;;;;;;;;;;15.50;69.70;;;;;;4980477;28;20013;-71
2021/05/17 08:47:44;;;;;;;;;;;15.40;71.70;;;;;;4981100;28;19959;-70
2021/05/17 08:50:09;;;;;;;;;;;15.40;72.30;;;;;;4981901;28;20340;-69
2021/05/17 08:52:37;;;;;;;;;;;15.20;69.80;;;;;;4977657;28;20328;-70
2021/05/17 08:55:05;;;;;;;;;;;15.20;68.90;;;;;;4983937;28;20000;-70
2021/05/17 08:57:31;;;;;;;;;;;15.10;69.60;;;;;;4978500;28;19958;-68
2021/05/17 08:59:56;;;;;;;;;;;15.30;69.40;;;;;;4975554;28;19953;-69
2021/05/17 09:02:22;;;;;;;;;;;15.90;69.80;;;;;;4977678;28;20352;-70
2021/05/17 09:05:06;;;;;;;;;;;15.80;71.20;;;;;;4980992;28;19917;-70
2021/05/17 09:07:39;;;;;;;;;;;15.40;69.50;;;;;;4974372;28;19922;-68
2021/05/17 09:10:12;;;;;;;;;;;15.10;70.10;;;;;;4989413;28;19910;-70
2021/05/17 09:12:51;;;;;;;;;;;15.10;70.00;;;;;;4974582;28;19983;-69
2021/05/17 09:15:17;;;;;;;;;;;15.00;71.20;;;;;;4975806;28;19949;-71
2021/05/17 09:17:53;;;;;;;;;;;15.10;73.60;;;;;;4985664;28;20346;-70
2021/05/17 09:20:22;;;;;;;;;;;15.20;72.40;;;;;;4988647;28;19922;-68
2021/05/17 09:22:49;;;;;;;;;;;15.20;70.60;;;;;;4975555;28;19909;-71
2021/05/17 09:25:15;;;;;;;;;;;15.30;71.00;;;;;;5000035;28;19913;-70
2021/05/17 09:27:40;;;;;;;;;;;15.30;69.80;;;;;;4983989;28;19940;-70
2021/05/17 09:30:06;;;;;;;;;;;15.00;69.40;;;;;;4988250;28;19964;-69
2021/05/17 09:32:34;;;;;;;;;;;15.00;68.90;;;;;;4971972;28;20286;-69
2021/05/17 09:34:59;;;;;;;;;;;14.70;69.20;;;;;;4997542;28;19921;-69
2021/05/17 09:37:25;;;;;;;;;;;14.60;69.50;;;;;;4990369;28;19913;-70
2021/05/17 09:39:51;;;;;;;;;;;14.50;71.00;;;;;;4986055;28;19959;-70
2021/05/17 09:42:21;;;;;;;;;;;14.30;72.50;;;;;;4973670;28;19918;-71
2021/05/17 09:44:47;;;;;;;;;;;14.10;73.70;;;;;;4974063;28;19940;-68
2021/05/17 09:47:14;;;;;;;;;;;14.00;74.80;;;;;;4966867;28;20432;-69
2021/05/17 09:49:50;;;;;;;;;;;13.70;75.40;;;;;;4986484;28;20059;-70
2021/05/17 09:52:18;;;;;;;;;;;13.00;78.40;;;;;;4972904;28;20056;-69
2021/05/17 09:54:52;;;;;;;;;;;12.30;84.90;;;;;;4972517;28;19910;-68
2021/05/17 09:57:19;;;;;;;;;;;11.70;87.80;;;;;;4972364;28;19913;-70
2021/05/17 09:59:47;;;;;;;;;;;11.20;89.10;;;;;;4983074;28;20001;-70
2021/05/17 10:02:29;;;;;;;;;;;11.10;90.60;;;;;;4970960;28;19980;-69
2021/05/17 10:04:55;;;;;;;;;;;11.10;91.20;;;;;;4983380;28;19918;-69
2021/05/17 10:07:21;;;;;;;;;;;11.10;91.20;;;;;;4980050;28;20344;-70
2021/05/17 10:09:46;;;;;;;;;;;11.50;92.20;;;;;;4990501;28;19991;-69
2021/05/17 10:12:12;;;;;;;;;;;12.00;91.70;;;;;;4980974;28;19910;-70
2021/05/17 10:14:37;;;;;;;;;;;12.60;90.40;;;;;;4995910;28;19930;-70
2021/05/17 10:17:03;;;;;;;;;;;13.20;89.50;;;;;;4979978;28;20044;-69
2021/05/17 10:19:29;;;;;;;;;;;13.80;90.20;;;;;;5002608;28;20331;-69
2021/05/17 10:21:54;;;;;;;;;;;13.90;83.40;;;;;;4999764;28;20089;-70
2021/05/17 10:24:20;;;;;;;;;;;14.10;85.00;;;;;;5003191;28;20273;-72
2021/05/17 10:26:46;;;;;;;;;;;15.10;86.90;;;;;;4998496;28;20410;-73
2021/05/17 10:29:12;;;;;;;;;;;15.60;85.10;;;;;;4995492;28;20008;-70
2021/05/17 10:31:50;;;;;;;;;;;15.90;80.50;;;;;;4986264;28;20000;-71
2021/05/17 10:34:15;;;;;;;;;;;16.40;81.10;;;;;;4983175;28;19933;-71
2021/05/17 10:36:52;;;;;;;;;;;16.20;76.80;;;;;;4972109;28;20012;-72
2021/05/17 10:39:19;;;;;;;;;;;16.00;76.70;;;;;;5003002;28;20344;-70
2021/05/17 10:42:01;;;;;;;;;;;15.50;75.70;;;;;;4985828;28;20283;-70
2021/05/17 10:46:53;;;;;;;;;;;14.60;79.10;;;;;;4977209;28;20303;-70
2021/05/17 10:49:28;;;;;;;;;;;14.30;78.40;;;;;;4995501;28;19925;-70
2021/05/17 10:52:14;;;;;;;;;;;13.60;79.90;;;;;;4989828;28;20159;-72
2021/05/17 10:54:42;;;;;;;;;;;13.10;81.40;;;;;;4972679;28;20344;-70
2021/05/17 10:57:22;;;;;;;;;;;13.00;84.40;;;;;;4978244;28;19921;-70
2021/05/17 11:02:34;;;;;;;;;;;12.80;86.00;;;;;;4989866;28;19975;-70
2021/05/17 11:05:03;;;;;;;;;;;12.70;86.10;;;;;;4981448;28;20092;-69
2021/05/17 11:07:32;;;;;;;;;;;12.90;87.40;;;;;;4976917;28;20009;-70
2021/05/17 11:10:00;;;;;;;;;;;13.00;87.40;;;;;;4984599;28;19913;-70
2021/05/17 11:12:26;;;;;;;;;;;13.10;87.20;;;;;;4990271;28;20275;-70
2021/05/17 11:15:11;;;;;;;;;;;13.20;86.50;;;;;;4977452;28;20009;-70
2021/05/17 11:17:52;;;;;;;;;;;13.60;86.40;;;;;;4977168;28;19926;-69
2021/05/17 11:20:36;;;;;;;;;;;13.80;86.80;;;;;;4996784;28;19926;-71
2021/05/17 11:23:01;;;;;;;;;;;14.30;86.70;;;;;;4972531;28;19960;-70
2021/05/17 11:25:47;;;;;;;;;;;14.10;82.40;;;;;;4981692;28;19953;-69
2021/05/17 11:28:13;;;;;;;;;;;14.30;83.20;;;;;;4982145;28;19917;-71
2021/05/17 11:30:43;;;;;;;;;;;14.40;80.90;;;;;;4981323;28;20067;-70
2021/05/17 11:33:18;;;;;;;;;;;14.80;83.10;;;;;;4981850;28;20097;-70
2021/05/17 11:35:59;;;;;;;;;;;15.40;81.20;;;;;;4993944;28;19909;-70
2021/05/17 11:38:25;;;;;;;;;;;15.40;78.10;;;;;;4985058;28;19932;-71
2021/05/17 11:40:51;;;;;;;;;;;14.90;77.50;;;;;;4979261;28;20008;-71
2021/05/17 11:43:17;;;;;;;;;;;14.90;79.50;;;;;;4977629;28;20021;-70
2021/05/17 11:45:43;;;;;;;;;;;15.00;79.10;;;;;;4974366;28;20276;-70
2021/05/17 11:48:09;;;;;;;;;;;14.80;77.30;;;;;;4976378;28;19993;-71
2021/05/17 11:50:34;;;;;;;;;;;15.00;80.40;;;;;;4984841;28;20376;-70
2021/05/17 11:53:00;;;;;;;;;;;15.10;79.20;;;;;;4976304;28;19921;-72
2021/05/17 11:55:25;;;;;;;;;;;15.10;76.90;;;;;;4980129;28;19914;-70
2021/05/17 11:57:52;;;;;;;;;;;15.40;79.90;;;;;;5014155;28;20000;-70
2021/05/17 12:00:21;;;;;;;;;;;15.60;77.20;;;;;;4977998;28;20004;-70
2021/05/17 12:02:52;;;;;;;;;;;15.80;74.00;;;;;;4957510;28;19914;-71
2021/05/17 12:05:18;;;;;;;;;;;15.50;75.60;;;;;;4972058;28;20113;-70
2021/05/17 12:07:48;;;;;;;;;;;15.60;73.30;;;;;;4975024;28;20040;-68
2021/05/17 12:10:15;;;;;;;;;;;16.10;74.00;;;;;;4982245;28;19910;-70
2021/05/17 12:12:40;;;;;;;;;;;17.40;70.30;;;;;;4976238;28;19916;-70
2021/05/17 12:15:11;;;;;;;;;;;17.70;68.20;;;;;;4977913;28;19909;-70
2021/05/17 12:17:37;;;;;;;;;;;18.30;66.10;;;;;;4971769;28;19914;-71
2021/05/17 12:20:04;;;;;;;;;;;18.30;67.70;;;;;;4974107;28;20364;-70
2021/05/17 12:22:39;;;;;;;;;;;18.10;64.10;;;;;;4973788;28;19913;-72
2021/05/17 12:25:06;;;;;;;;;;;18.00;67.50;;;;;;4970669;28;19913;-72
2021/05/17 12:27:32;;;;;;;;;;;18.00;67.60;;;;;;4976504;28;20061;-69
2021/05/17 12:29:57;;;;;;;;;;;18.30;63.80;;;;;;4975293;28;20407;-70
2021/05/17 12:32:24;;;;;;;;;;;19.00;65.20;;;;;;4972145;28;19940;-72
2021/05/17 12:35:00;;;;;;;;;;;19.00;60.60;;;;;;4973523;28;19914;-70
2021/05/17 12:37:27;;;;;;;;;;;19.00;57.20;;;;;;4976352;28;19923;-71
2021/05/17 12:40:09;;;;;;;;;;;19.30;61.00;;;;;;4974834;28;20403;-70
2021/05/17 12:42:34;;;;;;;;;;;18.40;60.90;;;;;;4976401;28;20363;-70
2021/05/17 12:45:06;;;;;;;;;;;17.30;64.20;;;;;;4975470;28;19914;-72
2021/05/17 12:47:38;;;;;;;;;;;17.10;65.20;;;;;;4973637;28;19984;-69
2021/05/17 12:50:05;;;;;;;;;;;16.60;67.20;;;;;;4972752;28;20388;-71
2021/05/17 12:52:32;;;;;;;;;;;16.30;69.00;;;;;;4971896;28;20145;-70
2021/05/17 12:55:10;;;;;;;;;;;16.10;69.30;;;;;;4976270;28;19913;-70
2021/05/17 12:57:55;;;;;;;;;;;15.70;71.80;;;;;;4972171;28;20225;-72
2021/05/17 13:00:34;;;;;;;;;;;15.50;72.30;;;;;;4972645;28;20415;-70
2021/05/17 13:03:10;;;;;;;;;;;15.60;73.40;;;;;;4973819;28;19909;-69
2021/05/17 13:05:55;;;;;;;;;;;15.60;71.20;;;;;;4974364;28;20055;-69
2021/05/17 13:08:21;;;;;;;;;;;15.70;71.60;;;;;;4973428;28;19921;-68
2021/05/17 13:10:57;;;;;;;;;;;15.30;69.10;;;;;;4967986;28;20316;-68
2021/05/17 13:13:41;;;;;;;;;;;15.50;70.00;;;;;;4970265;28;19917;-69
2021/05/17 13:16:11;;;;;;;;;;;15.40;69.00;;;;;;4968841;28;19909;-69
2021/05/17 13:18:52;;;;;;;;;;;15.30;71.40;;;;;;4970472;28;20266;-69
2021/05/17 13:21:19;;;;;;;;;;;15.10;71.10;;;;;;4976935;28;19910;-70
2021/05/17 13:30:10;;;;;;;;;;;14.40;71.50;;;;;;4975158;28;19916;-70
2021/05/17 13:32:37;;;;;;;;;;;13.90;70.10;;;;;;4969544;28;20386;-69
2021/05/17 13:35:03;;;;;;;;;;;13.70;71.80;;;;;;4980063;28;19914;-68
2021/05/17 13:37:29;;;;;;;;;;;13.60;73.40;;;;;;4977176;28;20249;-70
2021/05/17 13:39:54;;;;;;;;;;;13.30;76.10;;;;;;4975396;28;19921;-68
2021/05/17 13:42:20;;;;;;;;;;;13.20;77.50;;;;;;4977286;28;19921;-68
2021/05/17 13:44:46;;;;;;;;;;;13.20;79.30;;;;;;4974749;28;20252;-69
2021/05/17 13:47:12;;;;;;;;;;;13.20;80.90;;;;;;4984878;28;19918;-70
2021/05/17 13:49:38;;;;;;;;;;;13.50;81.40;;;;;;4985052;28;19933;-69
2021/05/17 13:52:04;;;;;;;;;;;14.00;80.30;;;;;;4979154;28;20713;-71
2021/05/17 13:54:29;;;;;;;;;;;15.50;79.30;;;;;;4976945;28;20000;-69
2021/05/17 13:56:55;;;;;;;;;;;16.70;76.00;;;;;;4982068;28;19932;-69
2021/05/17 13:59:20;;;;;;;;;;;16.80;66.70;;;;;;4978369;28;20336;-68
2021/05/17 14:01:46;;;;;;;;;;;17.50;71.50;;;;;;4976612;28;19949;-70
2021/05/17 14:04:12;;;;;;;;;;;18.20;68.10;;;;;;4980357;28;19930;-70
2021/05/17 14:06:37;;;;;;;;;;;18.00;61.70;;;;;;4981615;28;19928;-70
2021/05/17 14:09:03;;;;;;;;;;;18.90;63.20;;;;;;4986696;28;20324;-71
2021/05/17 14:11:29;;;;;;;;;;;19.80;57.60;;;;;;4982095;28;19924;-71
2021/05/17 14:13:55;;;;;;;;;;;20.40;58.30;;;;;;4984830;28;19914;-73
2021/05/17 14:16:20;;;;;;;;;;;20.60;54.50;;;;;;5000893;28;19914;-70
2021/05/17 14:18:46;;;;;;;;;;;20.50;53.90;;;;;;4983421;28;19917;-71
2021/05/17 14:21:12;;;;;;;;;;;19.80;55.60;;;;;;4981481;28;20013;-71
2021/05/17 14:23:37;;;;;;;;;;;19.10;56.90;;;;;;4982473;28;20341;-70
2021/05/17 14:26:04;;;;;;;;;;;19.00;56.50;;;;;;4982365;28;19959;-69
2021/05/17 14:28:29;;;;;;;;;;;19.10;58.80;;;;;;4980181;28;19914;-69
2021/05/17 14:30:55;;;;;;;;;;;19.00;57.60;;;;;;4979852;28;19922;-67
2021/05/17 14:33:21;;;;;;;;;;;18.50;57.90;;;;;;4983088;28;19968;-68
2021/05/17 14:35:47;;;;;;;;;;;18.00;58.90;;;;;;4978924;28;19949;-70
2021/05/17 14:38:12;;;;;;;;;;;17.50;60.90;;;;;;4981797;28;19921;-69
2021/05/17 14:40:38;;;;;;;;;;;17.10;61.40;;;;;;4980424;28;19932;-69
2021/05/17 14:43:04;;;;;;;;;;;17.20;61.90;;;;;;4983213;28;20274;-69
2021/05/17 14:45:29;;;;;;;;;;;17.40;62.70;;;;;;4988724;28;19944;-69
2021/05/17 14:47:55;;;;;;;;;;;17.10;61.00;;;;;;4985719;28;19909;-70
2021/05/17 14:50:21;;;;;;;;;;;16.70;63.40;;;;;;4987850;28;19913;-68
2021/05/17 14:52:47;;;;;;;;;;;16.60;64.10;;;;;;4987763;28;19984;-69